РПИ Дашогуз

Руководство

Evgeny Vygornitsky*

Куратор
Инструкторы РПИ
Evgeny Vygornitsky (Supervisor)
Vitaliy Alekseyev (Instructor)
Входит в состав
Центральная Азия

Диспетчеры РПИ

Диспетчер Рейтинг Допуски *

Аэропорты РПИ

ICAO Город Название Погода
UTAT Дашогуз Дашогуз UTAT 100800Z 10014KT CAVOK M04/M16 Q1038 R08/CLRD70 NOSIG